sensor_id;sensor_type;location;lat;lon;timestamp;P1;durP1;ratioP1;P2;durP2;ratioP2
25497;SDS011;13406;53.380;7.226;2023-08-06T00:00:51;5.83;;;2.77;;
25497;SDS011;13406;53.380;7.226;2023-08-06T00:03:17;3.53;;;2.67;;
25497;SDS011;13406;53.380;7.226;2023-08-06T00:05:42;4.30;;;2.60;;
25497;SDS011;13406;53.380;7.226;2023-08-06T00:08:08;4.10;;;3.23;;
25497;SDS011;13406;53.380;7.226;2023-08-06T00:10:33;3.60;;;2.83;;
25497;SDS011;13406;53.380;7.226;2023-08-06T00:12:59;3.60;;;3.03;;
25497;SDS011;13406;53.380;7.226;2023-08-06T00:15:24;3.03;;;2.50;;
25497;SDS011;13406;53.380;7.226;2023-08-06T00:17:50;4.07;;;2.80;;
25497;SDS011;13406;53.380;7.226;2023-08-06T00:20:15;4.10;;;2.73;;
25497;SDS011;13406;53.380;7.226;2023-08-06T00:22:40;3.97;;;2.43;;
25497;SDS011;13406;53.380;7.226;2023-08-06T00:25:06;4.40;;;3.60;;
25497;SDS011;13406;53.380;7.226;2023-08-06T00:27:32;3.30;;;3.00;;
25497;SDS011;13406;53.380;7.226;2023-08-06T00:29:57;3.70;;;2.50;;
25497;SDS011;13406;53.380;7.226;2023-08-06T00:32:23;3.73;;;2.83;;
25497;SDS011;13406;53.380;7.226;2023-08-06T00:34:48;3.27;;;2.80;;
25497;SDS011;13406;53.380;7.226;2023-08-06T00:37:15;4.53;;;2.60;;
25497;SDS011;13406;53.380;7.226;2023-08-06T00:39:41;4.13;;;2.87;;
25497;SDS011;13406;53.380;7.226;2023-08-06T00:42:07;5.20;;;2.70;;
25497;SDS011;13406;53.380;7.226;2023-08-06T00:44:33;5.17;;;3.07;;
25497;SDS011;13406;53.380;7.226;2023-08-06T00:46:58;4.13;;;2.57;;
25497;SDS011;13406;53.380;7.226;2023-08-06T00:49:24;3.67;;;2.90;;
25497;SDS011;13406;53.380;7.226;2023-08-06T00:51:49;4.77;;;3.10;;
25497;SDS011;13406;53.380;7.226;2023-08-06T00:54:15;6.13;;;2.43;;
25497;SDS011;13406;53.380;7.226;2023-08-06T00:56:41;4.20;;;2.70;;
25497;SDS011;13406;53.380;7.226;2023-08-06T00:59:07;4.13;;;3.00;;
25497;SDS011;13406;53.380;7.226;2023-08-06T01:01:34;3.70;;;2.70;;
25497;SDS011;13406;53.380;7.226;2023-08-06T01:04:00;4.40;;;2.90;;
25497;SDS011;13406;53.380;7.226;2023-08-06T01:06:39;3.60;;;2.97;;
25497;SDS011;13406;53.380;7.226;2023-08-06T01:17:20;3.23;;;2.87;;
25497;SDS011;13406;53.380;7.226;2023-08-06T01:19:48;3.43;;;2.87;;
25497;SDS011;13406;53.380;7.226;2023-08-06T01:22:13;4.90;;;3.20;;
25497;SDS011;13406;53.380;7.226;2023-08-06T01:24:39;4.90;;;3.10;;
25497;SDS011;13406;53.380;7.226;2023-08-06T01:27:11;3.97;;;3.30;;
25497;SDS011;13406;53.380;7.226;2023-08-06T01:29:47;5.63;;;3.40;;
25497;SDS011;13406;53.380;7.226;2023-08-06T01:32:21;5.43;;;3.43;;
25497;SDS011;13406;53.380;7.226;2023-08-06T01:34:49;4.40;;;3.50;;
25497;SDS011;13406;53.380;7.226;2023-08-06T01:37:16;3.77;;;3.27;;
25497;SDS011;13406;53.380;7.226;2023-08-06T01:39:42;5.87;;;3.30;;
25497;SDS011;13406;53.380;7.226;2023-08-06T01:42:08;5.70;;;4.40;;
25497;SDS011;13406;53.380;7.226;2023-08-06T01:44:34;4.20;;;3.10;;
25497;SDS011;13406;53.380;7.226;2023-08-06T01:46:59;3.33;;;2.87;;
25497;SDS011;13406;53.380;7.226;2023-08-06T01:49:25;4.83;;;3.60;;
25497;SDS011;13406;53.380;7.226;2023-08-06T01:51:50;4.27;;;3.47;;
25497;SDS011;13406;53.380;7.226;2023-08-06T01:54:15;4.97;;;3.90;;
25497;SDS011;13406;53.380;7.226;2023-08-06T01:56:41;4.27;;;3.87;;
25497;SDS011;13406;53.380;7.226;2023-08-06T01:59:06;5.27;;;4.00;;
25497;SDS011;13406;53.380;7.226;2023-08-06T02:01:32;4.30;;;3.70;;
25497;SDS011;13406;53.380;7.226;2023-08-06T02:03:57;4.43;;;3.93;;
25497;SDS011;13406;53.380;7.226;2023-08-06T02:06:22;6.77;;;4.23;;
25497;SDS011;13406;53.380;7.226;2023-08-06T02:08:48;5.20;;;3.87;;
25497;SDS011;13406;53.380;7.226;2023-08-06T02:11:13;7.27;;;4.07;;
25497;SDS011;13406;53.380;7.226;2023-08-06T02:13:39;5.13;;;4.03;;
25497;SDS011;13406;53.380;7.226;2023-08-06T02:16:06;5.13;;;4.00;;
25497;SDS011;13406;53.380;7.226;2023-08-06T02:18:33;4.63;;;4.13;;
25497;SDS011;13406;53.380;7.226;2023-08-06T02:20:59;4.03;;;3.60;;
25497;SDS011;13406;53.380;7.226;2023-08-06T02:23:24;6.20;;;4.53;;
25497;SDS011;13406;53.380;7.226;2023-08-06T02:26:00;9.23;;;4.13;;
25497;SDS011;13406;53.380;7.226;2023-08-06T02:28:28;4.77;;;3.57;;
25497;SDS011;13406;53.380;7.226;2023-08-06T02:30:54;5.73;;;3.70;;
25497;SDS011;13406;53.380;7.226;2023-08-06T02:33:19;4.50;;;4.00;;
25497;SDS011;13406;53.380;7.226;2023-08-06T02:35:44;6.80;;;4.00;;
25497;SDS011;13406;53.380;7.226;2023-08-06T02:38:10;5.33;;;4.20;;
25497;SDS011;13406;53.380;7.226;2023-08-06T02:40:35;4.60;;;4.10;;
25497;SDS011;13406;53.380;7.226;2023-08-06T02:43:01;6.27;;;4.40;;
25497;SDS011;13406;53.380;7.226;2023-08-06T02:45:26;6.13;;;4.80;;
25497;SDS011;13406;53.380;7.226;2023-08-06T02:47:51;5.37;;;4.40;;
25497;SDS011;13406;53.380;7.226;2023-08-06T02:50:17;4.60;;;4.20;;
25497;SDS011;13406;53.380;7.226;2023-08-06T02:52:42;5.30;;;4.30;;
25497;SDS011;13406;53.380;7.226;2023-08-06T02:55:08;6.10;;;4.17;;
25497;SDS011;13406;53.380;7.226;2023-08-06T02:57:33;4.77;;;4.03;;
25497;SDS011;13406;53.380;7.226;2023-08-06T02:59:59;5.50;;;4.93;;
25497;SDS011;13406;53.380;7.226;2023-08-06T03:02:24;7.33;;;4.80;;
25497;SDS011;13406;53.380;7.226;2023-08-06T03:04:50;4.93;;;4.37;;
25497;SDS011;13406;53.380;7.226;2023-08-06T03:07:16;7.70;;;4.20;;
25497;SDS011;13406;53.380;7.226;2023-08-06T03:09:41;6.87;;;4.00;;
25497;SDS011;13406;53.380;7.226;2023-08-06T03:12:06;4.30;;;3.90;;
25497;SDS011;13406;53.380;7.226;2023-08-06T03:14:32;4.57;;;4.13;;
25497;SDS011;13406;53.380;7.226;2023-08-06T03:16:58;4.87;;;4.37;;
25497;SDS011;13406;53.380;7.226;2023-08-06T03:19:23;5.73;;;4.90;;
25497;SDS011;13406;53.380;7.226;2023-08-06T03:21:48;5.20;;;4.70;;
25497;SDS011;13406;53.380;7.226;2023-08-06T03:24:14;5.70;;;4.57;;
25497;SDS011;13406;53.380;7.226;2023-08-06T03:26:39;5.37;;;4.40;;
25497;SDS011;13406;53.380;7.226;2023-08-06T03:29:05;5.87;;;5.10;;
25497;SDS011;13406;53.380;7.226;2023-08-06T03:31:30;5.00;;;4.43;;
25497;SDS011;13406;53.380;7.226;2023-08-06T03:33:55;5.00;;;4.50;;
25497;SDS011;13406;53.380;7.226;2023-08-06T03:36:21;5.90;;;5.30;;
25497;SDS011;13406;53.380;7.226;2023-08-06T03:38:46;5.80;;;4.87;;
25497;SDS011;13406;53.380;7.226;2023-08-06T03:41:12;6.20;;;5.33;;
25497;SDS011;13406;53.380;7.226;2023-08-06T03:43:37;5.03;;;4.40;;
25497;SDS011;13406;53.380;7.226;2023-08-06T03:46:03;5.70;;;5.03;;
25497;SDS011;13406;53.380;7.226;2023-08-06T03:48:28;6.23;;;4.70;;
25497;SDS011;13406;53.380;7.226;2023-08-06T03:50:54;6.40;;;5.10;;
25497;SDS011;13406;53.380;7.226;2023-08-06T03:53:19;6.30;;;5.07;;
25497;SDS011;13406;53.380;7.226;2023-08-06T03:55:44;5.70;;;4.87;;
25497;SDS011;13406;53.380;7.226;2023-08-06T03:58:10;6.00;;;4.60;;
25497;SDS011;13406;53.380;7.226;2023-08-06T04:00:35;6.40;;;4.70;;
25497;SDS011;13406;53.380;7.226;2023-08-06T04:03:01;5.20;;;4.27;;
25497;SDS011;13406;53.380;7.226;2023-08-06T04:05:26;6.93;;;5.10;;
25497;SDS011;13406;53.380;7.226;2023-08-06T04:07:51;5.67;;;4.90;;
25497;SDS011;13406;53.380;7.226;2023-08-06T04:10:17;5.90;;;5.13;;
25497;SDS011;13406;53.380;7.226;2023-08-06T04:12:42;7.27;;;5.13;;
25497;SDS011;13406;53.380;7.226;2023-08-06T04:15:08;5.77;;;5.07;;
25497;SDS011;13406;53.380;7.226;2023-08-06T04:17:33;5.30;;;4.80;;
25497;SDS011;13406;53.380;7.226;2023-08-06T04:19:59;6.77;;;4.90;;
25497;SDS011;13406;53.380;7.226;2023-08-06T04:22:24;5.70;;;5.10;;
25497;SDS011;13406;53.380;7.226;2023-08-06T04:24:50;5.77;;;5.17;;
25497;SDS011;13406;53.380;7.226;2023-08-06T04:27:15;7.73;;;5.17;;
25497;SDS011;13406;53.380;7.226;2023-08-06T04:29:42;5.33;;;4.40;;
25497;SDS011;13406;53.380;7.226;2023-08-06T04:32:08;6.37;;;5.53;;
25497;SDS011;13406;53.380;7.226;2023-08-06T04:34:35;6.83;;;5.60;;
25497;SDS011;13406;53.380;7.226;2023-08-06T04:37:01;5.67;;;4.70;;
25497;SDS011;13406;53.380;7.226;2023-08-06T04:39:27;7.13;;;4.50;;
25497;SDS011;13406;53.380;7.226;2023-08-06T04:41:52;5.20;;;4.70;;
25497;SDS011;13406;53.380;7.226;2023-08-06T04:44:18;5.47;;;4.93;;
25497;SDS011;13406;53.380;7.226;2023-08-06T04:46:44;7.00;;;5.27;;
25497;SDS011;13406;53.380;7.226;2023-08-06T04:49:09;5.10;;;4.60;;
25497;SDS011;13406;53.380;7.226;2023-08-06T04:51:35;4.43;;;3.67;;
25497;SDS011;13406;53.380;7.226;2023-08-06T04:54:00;4.40;;;3.87;;
25497;SDS011;13406;53.380;7.226;2023-08-06T04:56:26;6.67;;;4.50;;
25497;SDS011;13406;53.380;7.226;2023-08-06T04:58:51;5.50;;;5.00;;
25497;SDS011;13406;53.380;7.226;2023-08-06T05:01:17;4.67;;;4.20;;
25497;SDS011;13406;53.380;7.226;2023-08-06T05:03:42;5.20;;;4.70;;
25497;SDS011;13406;53.380;7.226;2023-08-06T05:06:08;5.07;;;4.50;;
25497;SDS011;13406;53.380;7.226;2023-08-06T05:08:33;7.00;;;4.43;;
25497;SDS011;13406;53.380;7.226;2023-08-06T05:10:59;6.53;;;4.23;;
25497;SDS011;13406;53.380;7.226;2023-08-06T05:13:24;5.73;;;4.57;;
25497;SDS011;13406;53.380;7.226;2023-08-06T05:15:50;4.67;;;4.23;;
25497;SDS011;13406;53.380;7.226;2023-08-06T05:18:16;5.90;;;4.63;;
25497;SDS011;13406;53.380;7.226;2023-08-06T05:20:42;5.30;;;4.80;;
25497;SDS011;13406;53.380;7.226;2023-08-06T05:23:07;5.93;;;4.50;;
25497;SDS011;13406;53.380;7.226;2023-08-06T05:25:36;6.27;;;4.70;;
25497;SDS011;13406;53.380;7.226;2023-08-06T05:28:05;5.40;;;4.90;;
25497;SDS011;13406;53.380;7.226;2023-08-06T05:30:31;4.90;;;4.40;;
25497;SDS011;13406;53.380;7.226;2023-08-06T05:32:56;5.00;;;4.33;;
25497;SDS011;13406;53.380;7.226;2023-08-06T05:35:22;4.80;;;4.30;;
25497;SDS011;13406;53.380;7.226;2023-08-06T05:37:48;6.10;;;4.50;;
25497;SDS011;13406;53.380;7.226;2023-08-06T05:40:15;4.90;;;4.40;;
25497;SDS011;13406;53.380;7.226;2023-08-06T05:42:41;5.20;;;4.53;;
25497;SDS011;13406;53.380;7.226;2023-08-06T05:45:07;4.80;;;4.30;;
25497;SDS011;13406;53.380;7.226;2023-08-06T05:47:33;6.20;;;4.23;;
25497;SDS011;13406;53.380;7.226;2023-08-06T05:49:58;6.20;;;4.40;;
25497;SDS011;13406;53.380;7.226;2023-08-06T05:52:23;5.67;;;4.03;;
25497;SDS011;13406;53.380;7.226;2023-08-06T05:54:49;6.40;;;4.37;;
25497;SDS011;13406;53.380;7.226;2023-08-06T05:57:15;6.07;;;4.77;;
25497;SDS011;13406;53.380;7.226;2023-08-06T05:59:40;4.47;;;4.07;;
25497;SDS011;13406;53.380;7.226;2023-08-06T06:02:06;6.93;;;3.90;;
25497;SDS011;13406;53.380;7.226;2023-08-06T06:04:31;6.00;;;4.40;;
25497;SDS011;13406;53.380;7.226;2023-08-06T06:06:57;4.80;;;4.23;;
25497;SDS011;13406;53.380;7.226;2023-08-06T06:09:22;4.53;;;3.50;;
25497;SDS011;13406;53.380;7.226;2023-08-06T06:11:47;3.87;;;3.33;;
25497;SDS011;13406;53.380;7.226;2023-08-06T06:14:15;5.30;;;3.73;;
25497;SDS011;13406;53.380;7.226;2023-08-06T06:16:41;4.20;;;3.50;;
25497;SDS011;13406;53.380;7.226;2023-08-06T06:19:06;3.67;;;3.30;;
25497;SDS011;13406;53.380;7.226;2023-08-06T06:21:32;3.20;;;2.77;;
25497;SDS011;13406;53.380;7.226;2023-08-06T06:23:57;4.20;;;3.73;;
25497;SDS011;13406;53.380;7.226;2023-08-06T06:26:23;4.67;;;3.30;;
25497;SDS011;13406;53.380;7.226;2023-08-06T06:28:48;4.73;;;2.87;;
25497;SDS011;13406;53.380;7.226;2023-08-06T06:31:13;16.40;;;3.70;;
25497;SDS011;13406;53.380;7.226;2023-08-06T06:33:39;5.30;;;3.20;;
25497;SDS011;13406;53.380;7.226;2023-08-06T06:36:04;9.60;;;3.73;;
25497;SDS011;13406;53.380;7.226;2023-08-06T06:38:32;4.23;;;2.93;;
25497;SDS011;13406;53.380;7.226;2023-08-06T06:40:58;3.83;;;3.07;;
25497;SDS011;13406;53.380;7.226;2023-08-06T06:43:24;3.70;;;3.17;;
25497;SDS011;13406;53.380;7.226;2023-08-06T06:45:53;3.07;;;2.57;;
25497;SDS011;13406;53.380;7.226;2023-08-06T06:48:28;3.83;;;3.43;;
25497;SDS011;13406;53.380;7.226;2023-08-06T06:50:54;4.10;;;2.90;;
25497;SDS011;13406;53.380;7.226;2023-08-06T06:53:20;3.00;;;2.60;;
25497;SDS011;13406;53.380;7.226;2023-08-06T06:55:46;2.87;;;2.27;;
25497;SDS011;13406;53.380;7.226;2023-08-06T06:58:14;3.43;;;2.73;;
25497;SDS011;13406;53.380;7.226;2023-08-06T07:00:41;2.50;;;2.17;;
25497;SDS011;13406;53.380;7.226;2023-08-06T07:03:06;3.47;;;2.50;;
25497;SDS011;13406;53.380;7.226;2023-08-06T07:05:32;3.00;;;2.57;;
25497;SDS011;13406;53.380;7.226;2023-08-06T07:07:57;3.53;;;2.70;;
25497;SDS011;13406;53.380;7.226;2023-08-06T07:10:23;3.90;;;2.70;;
25497;SDS011;13406;53.380;7.226;2023-08-06T07:12:48;2.90;;;2.20;;
25497;SDS011;13406;53.380;7.226;2023-08-06T07:15:14;2.80;;;2.50;;
25497;SDS011;13406;53.380;7.226;2023-08-06T07:17:39;3.43;;;2.70;;
25497;SDS011;13406;53.380;7.226;2023-08-06T07:20:05;4.10;;;2.40;;
25497;SDS011;13406;53.380;7.226;2023-08-06T07:22:31;2.70;;;2.13;;
25497;SDS011;13406;53.380;7.226;2023-08-06T07:24:56;2.70;;;2.30;;
25497;SDS011;13406;53.380;7.226;2023-08-06T07:27:22;3.07;;;2.40;;
25497;SDS011;13406;53.380;7.226;2023-08-06T07:29:47;2.70;;;2.13;;
25497;SDS011;13406;53.380;7.226;2023-08-06T07:32:13;3.63;;;2.07;;
25497;SDS011;13406;53.380;7.226;2023-08-06T07:34:39;2.73;;;2.00;;
25497;SDS011;13406;53.380;7.226;2023-08-06T07:37:04;3.00;;;1.80;;
25497;SDS011;13406;53.380;7.226;2023-08-06T07:39:30;3.00;;;2.40;;
25497;SDS011;13406;53.380;7.226;2023-08-06T07:41:56;2.50;;;2.00;;
25497;SDS011;13406;53.380;7.226;2023-08-06T07:44:21;2.40;;;2.00;;
25497;SDS011;13406;53.380;7.226;2023-08-06T07:46:47;2.63;;;2.40;;
25497;SDS011;13406;53.380;7.226;2023-08-06T07:49:12;2.73;;;2.13;;
25497;SDS011;13406;53.380;7.226;2023-08-06T07:51:37;2.27;;;1.70;;
25497;SDS011;13406;53.380;7.226;2023-08-06T07:54:03;2.80;;;2.23;;
25497;SDS011;13406;53.380;7.226;2023-08-06T07:56:29;3.60;;;2.00;;
25497;SDS011;13406;53.380;7.226;2023-08-06T07:58:54;2.77;;;2.20;;
25497;SDS011;13406;53.380;7.226;2023-08-06T08:01:19;2.30;;;1.97;;
25497;SDS011;13406;53.380;7.226;2023-08-06T08:03:45;2.70;;;1.67;;
25497;SDS011;13406;53.380;7.226;2023-08-06T08:06:11;3.07;;;1.97;;
25497;SDS011;13406;53.380;7.226;2023-08-06T08:08:36;3.00;;;1.77;;
25497;SDS011;13406;53.380;7.226;2023-08-06T08:11:03;2.53;;;1.90;;
25497;SDS011;13406;53.380;7.226;2023-08-06T08:13:29;2.63;;;2.17;;
25497;SDS011;13406;53.380;7.226;2023-08-06T08:15:58;3.43;;;2.37;;
25497;SDS011;13406;53.380;7.226;2023-08-06T08:18:24;2.47;;;1.97;;
25497;SDS011;13406;53.380;7.226;2023-08-06T08:20:49;2.70;;;1.67;;
25497;SDS011;13406;53.380;7.226;2023-08-06T08:23:15;2.97;;;2.13;;
25497;SDS011;13406;53.380;7.226;2023-08-06T08:25:41;2.80;;;2.00;;
25497;SDS011;13406;53.380;7.226;2023-08-06T08:28:06;3.00;;;2.20;;
25497;SDS011;13406;53.380;7.226;2023-08-06T08:30:32;2.67;;;2.00;;
25497;SDS011;13406;53.380;7.226;2023-08-06T08:32:57;3.93;;;2.10;;
25497;SDS011;13406;53.380;7.226;2023-08-06T08:35:23;3.00;;;2.20;;
25497;SDS011;13406;53.380;7.226;2023-08-06T08:37:48;2.73;;;2.30;;
25497;SDS011;13406;53.380;7.226;2023-08-06T08:40:14;3.70;;;2.30;;
25497;SDS011;13406;53.380;7.226;2023-08-06T08:42:40;2.47;;;2.10;;
25497;SDS011;13406;53.380;7.226;2023-08-06T08:45:14;3.40;;;2.33;;
25497;SDS011;13406;53.380;7.226;2023-08-06T08:47:41;2.30;;;1.83;;
25497;SDS011;13406;53.380;7.226;2023-08-06T08:50:08;2.57;;;1.90;;
25497;SDS011;13406;53.380;7.226;2023-08-06T08:52:35;3.10;;;2.27;;
25497;SDS011;13406;53.380;7.226;2023-08-06T08:55:03;2.90;;;2.13;;
25497;SDS011;13406;53.380;7.226;2023-08-06T08:57:29;2.60;;;1.80;;
25497;SDS011;13406;53.380;7.226;2023-08-06T08:59:54;5.00;;;1.97;;
25497;SDS011;13406;53.380;7.226;2023-08-06T09:02:20;2.93;;;1.80;;
25497;SDS011;13406;53.380;7.226;2023-08-06T09:04:47;3.53;;;2.23;;
25497;SDS011;13406;53.380;7.226;2023-08-06T09:07:15;2.40;;;1.73;;
25497;SDS011;13406;53.380;7.226;2023-08-06T09:09:46;2.50;;;1.70;;
25497;SDS011;13406;53.380;7.226;2023-08-06T09:12:16;2.40;;;1.57;;
25497;SDS011;13406;53.380;7.226;2023-08-06T09:14:42;2.33;;;1.40;;
25497;SDS011;13406;53.380;7.226;2023-08-06T09:17:08;2.20;;;1.60;;
25497;SDS011;13406;53.380;7.226;2023-08-06T09:19:36;2.50;;;1.57;;
25497;SDS011;13406;53.380;7.226;2023-08-06T09:22:02;2.17;;;1.23;;
25497;SDS011;13406;53.380;7.226;2023-08-06T09:24:28;1.50;;;1.10;;
25497;SDS011;13406;53.380;7.226;2023-08-06T09:26:53;2.67;;;1.60;;
25497;SDS011;13406;53.380;7.226;2023-08-06T09:29:19;2.40;;;1.20;;
25497;SDS011;13406;53.380;7.226;2023-08-06T09:31:46;1.90;;;1.40;;
25497;SDS011;13406;53.380;7.226;2023-08-06T09:34:16;2.70;;;1.50;;
25497;SDS011;13406;53.380;7.226;2023-08-06T09:36:46;1.83;;;1.23;;
25497;SDS011;13406;53.380;7.226;2023-08-06T09:39:16;1.80;;;1.03;;
25497;SDS011;13406;53.380;7.226;2023-08-06T09:41:43;2.03;;;1.27;;
25497;SDS011;13406;53.380;7.226;2023-08-06T09:44:19;1.77;;;1.10;;
25497;SDS011;13406;53.380;7.226;2023-08-06T09:49:20;1.63;;;1.07;;
25497;SDS011;13406;53.380;7.226;2023-08-06T09:51:47;1.87;;;1.17;;
25497;SDS011;13406;53.380;7.226;2023-08-06T09:54:16;1.87;;;1.10;;
25497;SDS011;13406;53.380;7.226;2023-08-06T09:56:42;1.40;;;0.97;;
25497;SDS011;13406;53.380;7.226;2023-08-06T09:59:08;1.80;;;1.10;;
25497;SDS011;13406;53.380;7.226;2023-08-06T10:01:36;2.20;;;1.50;;
25497;SDS011;13406;53.380;7.226;2023-08-06T10:04:03;1.83;;;1.00;;
25497;SDS011;13406;53.380;7.226;2023-08-06T10:06:29;1.87;;;1.10;;
25497;SDS011;13406;53.380;7.226;2023-08-06T10:08:55;1.80;;;1.10;;
25497;SDS011;13406;53.380;7.226;2023-08-06T10:11:21;2.57;;;1.50;;
25497;SDS011;13406;53.380;7.226;2023-08-06T10:13:49;1.70;;;1.00;;
25497;SDS011;13406;53.380;7.226;2023-08-06T10:16:17;2.47;;;1.20;;
25497;SDS011;13406;53.380;7.226;2023-08-06T10:18:43;2.30;;;1.20;;
25497;SDS011;13406;53.380;7.226;2023-08-06T10:21:09;1.50;;;1.00;;
25497;SDS011;13406;53.380;7.226;2023-08-06T10:23:35;1.60;;;1.10;;
25497;SDS011;13406;53.380;7.226;2023-08-06T10:26:03;3.17;;;1.23;;
25497;SDS011;13406;53.380;7.226;2023-08-06T10:28:38;1.90;;;1.27;;
25497;SDS011;13406;53.380;7.226;2023-08-06T10:31:04;2.10;;;1.30;;
25497;SDS011;13406;53.380;7.226;2023-08-06T10:33:43;2.00;;;1.00;;
25497;SDS011;13406;53.380;7.226;2023-08-06T10:36:09;1.53;;;1.03;;
25497;SDS011;13406;53.380;7.226;2023-08-06T10:38:43;1.93;;;1.10;;
25497;SDS011;13406;53.380;7.226;2023-08-06T10:41:17;1.60;;;1.00;;
25497;SDS011;13406;53.380;7.226;2023-08-06T10:43:48;1.70;;;1.00;;
25497;SDS011;13406;53.380;7.226;2023-08-06T10:46:23;2.40;;;1.13;;
25497;SDS011;13406;53.380;7.226;2023-08-06T10:48:52;1.57;;;1.23;;
25497;SDS011;13406;53.380;7.226;2023-08-06T10:51:18;1.30;;;0.80;;
25497;SDS011;13406;53.380;7.226;2023-08-06T10:53:47;1.50;;;0.90;;
25497;SDS011;13406;53.380;7.226;2023-08-06T10:56:14;2.10;;;1.13;;
25497;SDS011;13406;53.380;7.226;2023-08-06T10:58:48;1.30;;;0.90;;
25497;SDS011;13406;53.380;7.226;2023-08-06T11:01:14;2.63;;;1.20;;
25497;SDS011;13406;53.380;7.226;2023-08-06T11:03:41;1.97;;;1.10;;
25497;SDS011;13406;53.380;7.226;2023-08-06T11:06:07;1.93;;;1.10;;
25497;SDS011;13406;53.380;7.226;2023-08-06T11:08:34;1.83;;;1.13;;
25497;SDS011;13406;53.380;7.226;2023-08-06T11:11:11;1.83;;;0.90;;
25497;SDS011;13406;53.380;7.226;2023-08-06T11:13:40;1.60;;;1.10;;
25497;SDS011;13406;53.380;7.226;2023-08-06T11:16:08;1.40;;;0.80;;
25497;SDS011;13406;53.380;7.226;2023-08-06T11:18:34;1.43;;;0.97;;
25497;SDS011;13406;53.380;7.226;2023-08-06T11:21:00;1.50;;;1.10;;
25497;SDS011;13406;53.380;7.226;2023-08-06T11:23:27;1.87;;;1.00;;
25497;SDS011;13406;53.380;7.226;2023-08-06T11:25:57;1.50;;;0.90;;
25497;SDS011;13406;53.380;7.226;2023-08-06T11:28:23;1.33;;;0.90;;
25497;SDS011;13406;53.380;7.226;2023-08-06T11:30:49;1.50;;;0.93;;
25497;SDS011;13406;53.380;7.226;2023-08-06T11:33:19;2.17;;;1.20;;
25497;SDS011;13406;53.380;7.226;2023-08-06T11:35:47;1.50;;;0.80;;
25497;SDS011;13406;53.380;7.226;2023-08-06T11:38:13;1.90;;;1.20;;
25497;SDS011;13406;53.380;7.226;2023-08-06T11:40:39;1.53;;;0.90;;
25497;SDS011;13406;53.380;7.226;2023-08-06T11:43:05;2.30;;;1.27;;
25497;SDS011;13406;53.380;7.226;2023-08-06T11:45:31;1.87;;;1.07;;
25497;SDS011;13406;53.380;7.226;2023-08-06T11:47:59;2.03;;;1.40;;
25497;SDS011;13406;53.380;7.226;2023-08-06T11:50:25;1.83;;;1.00;;
25497;SDS011;13406;53.380;7.226;2023-08-06T11:52:59;2.60;;;1.23;;
25497;SDS011;13406;53.380;7.226;2023-08-06T11:55:25;2.53;;;1.60;;
25497;SDS011;13406;53.380;7.226;2023-08-06T11:57:53;2.00;;;1.43;;
25497;SDS011;13406;53.380;7.226;2023-08-06T12:00:19;2.33;;;1.30;;
25497;SDS011;13406;53.380;7.226;2023-08-06T12:02:47;1.67;;;1.13;;
25497;SDS011;13406;53.380;7.226;2023-08-06T12:05:21;2.07;;;1.20;;
25497;SDS011;13406;53.380;7.226;2023-08-06T12:07:58;1.60;;;1.00;;
25497;SDS011;13406;53.380;7.226;2023-08-06T12:10:25;1.50;;;1.00;;
25497;SDS011;13406;53.380;7.226;2023-08-06T12:12:52;2.20;;;1.40;;
25497;SDS011;13406;53.380;7.226;2023-08-06T12:15:18;1.60;;;1.00;;
25497;SDS011;13406;53.380;7.226;2023-08-06T12:17:44;1.83;;;1.10;;
25497;SDS011;13406;53.380;7.226;2023-08-06T12:20:09;1.80;;;1.20;;
25497;SDS011;13406;53.380;7.226;2023-08-06T12:22:35;1.40;;;0.80;;
25497;SDS011;13406;53.380;7.226;2023-08-06T12:25:03;4.20;;;1.77;;
25497;SDS011;13406;53.380;7.226;2023-08-06T12:27:37;2.23;;;1.50;;
25497;SDS011;13406;53.380;7.226;2023-08-06T12:30:03;2.20;;;1.40;;
25497;SDS011;13406;53.380;7.226;2023-08-06T12:32:30;1.60;;;1.10;;
25497;SDS011;13406;53.380;7.226;2023-08-06T12:34:56;2.47;;;1.23;;
25497;SDS011;13406;53.380;7.226;2023-08-06T12:37:21;2.40;;;1.47;;
25497;SDS011;13406;53.380;7.226;2023-08-06T12:39:48;3.40;;;1.60;;
25497;SDS011;13406;53.380;7.226;2023-08-06T12:42:13;1.63;;;0.97;;
25497;SDS011;13406;53.380;7.226;2023-08-06T12:44:39;1.93;;;1.00;;
25497;SDS011;13406;53.380;7.226;2023-08-06T12:47:04;2.77;;;1.20;;
25497;SDS011;13406;53.380;7.226;2023-08-06T12:49:29;2.07;;;1.00;;
25497;SDS011;13406;53.380;7.226;2023-08-06T12:51:56;2.23;;;1.10;;
25497;SDS011;13406;53.380;7.226;2023-08-06T12:54:22;1.87;;;1.03;;
25497;SDS011;13406;53.380;7.226;2023-08-06T12:56:48;2.13;;;1.10;;
25497;SDS011;13406;53.380;7.226;2023-08-06T12:59:14;1.80;;;1.00;;
25497;SDS011;13406;53.380;7.226;2023-08-06T13:01:41;1.80;;;1.00;;
25497;SDS011;13406;53.380;7.226;2023-08-06T13:04:07;1.60;;;1.00;;
25497;SDS011;13406;53.380;7.226;2023-08-06T13:06:32;1.60;;;1.00;;
25497;SDS011;13406;53.380;7.226;2023-08-06T13:09:02;2.63;;;1.50;;
25497;SDS011;13406;53.380;7.226;2023-08-06T13:11:28;2.10;;;1.20;;
25497;SDS011;13406;53.380;7.226;2023-08-06T13:13:55;1.93;;;1.00;;
25497;SDS011;13406;53.380;7.226;2023-08-06T13:16:21;2.13;;;1.00;;
25497;SDS011;13406;53.380;7.226;2023-08-06T13:18:47;1.70;;;1.10;;
25497;SDS011;13406;53.380;7.226;2023-08-06T13:21:12;3.10;;;1.07;;
25497;SDS011;13406;53.380;7.226;2023-08-06T13:23:38;1.70;;;1.30;;
25497;SDS011;13406;53.380;7.226;2023-08-06T13:26:03;4.00;;;1.10;;
25497;SDS011;13406;53.380;7.226;2023-08-06T13:28:29;2.70;;;1.47;;
25497;SDS011;13406;53.380;7.226;2023-08-06T13:30:55;1.83;;;1.10;;
25497;SDS011;13406;53.380;7.226;2023-08-06T13:33:20;1.80;;;1.13;;
25497;SDS011;13406;53.380;7.226;2023-08-06T13:35:46;1.80;;;1.10;;
25497;SDS011;13406;53.380;7.226;2023-08-06T13:38:11;2.10;;;1.40;;
25497;SDS011;13406;53.380;7.226;2023-08-06T13:40:37;4.37;;;2.60;;
25497;SDS011;13406;53.380;7.226;2023-08-06T13:43:02;3.70;;;2.20;;
25497;SDS011;13406;53.380;7.226;2023-08-06T13:45:27;3.60;;;2.50;;
25497;SDS011;13406;53.380;7.226;2023-08-06T13:47:55;4.23;;;2.30;;
25497;SDS011;13406;53.380;7.226;2023-08-06T13:50:20;4.67;;;2.47;;
25497;SDS011;13406;53.380;7.226;2023-08-06T13:52:47;2.20;;;1.53;;
25497;SDS011;13406;53.380;7.226;2023-08-06T13:55:12;1.77;;;1.10;;
25497;SDS011;13406;53.380;7.226;2023-08-06T13:57:38;2.20;;;1.40;;
25497;SDS011;13406;53.380;7.226;2023-08-06T14:00:03;2.30;;;1.20;;
25497;SDS011;13406;53.380;7.226;2023-08-06T14:02:30;2.83;;;1.63;;
25497;SDS011;13406;53.380;7.226;2023-08-06T14:04:55;2.00;;;1.10;;
25497;SDS011;13406;53.380;7.226;2023-08-06T14:07:21;1.80;;;1.10;;
25497;SDS011;13406;53.380;7.226;2023-08-06T14:09:47;2.40;;;1.10;;
25497;SDS011;13406;53.380;7.226;2023-08-06T14:12:14;1.83;;;1.03;;
25497;SDS011;13406;53.380;7.226;2023-08-06T14:14:39;2.23;;;1.37;;
25497;SDS011;13406;53.380;7.226;2023-08-06T14:17:05;3.50;;;2.10;;
25497;SDS011;13406;53.380;7.226;2023-08-06T14:19:30;2.80;;;1.37;;
25497;SDS011;13406;53.380;7.226;2023-08-06T14:21:56;2.10;;;1.10;;
25497;SDS011;13406;53.380;7.226;2023-08-06T14:24:21;1.90;;;1.00;;
25497;SDS011;13406;53.380;7.226;2023-08-06T14:26:47;2.80;;;1.00;;
25497;SDS011;13406;53.380;7.226;2023-08-06T14:29:12;1.80;;;1.03;;
25497;SDS011;13406;53.380;7.226;2023-08-06T14:31:38;3.67;;;1.30;;
25497;SDS011;13406;53.380;7.226;2023-08-06T14:34:04;2.50;;;1.10;;
25497;SDS011;13406;53.380;7.226;2023-08-06T14:36:30;2.27;;;1.40;;
25497;SDS011;13406;53.380;7.226;2023-08-06T14:38:55;2.80;;;1.80;;
25497;SDS011;13406;53.380;7.226;2023-08-06T14:41:21;2.60;;;1.57;;
25497;SDS011;13406;53.380;7.226;2023-08-06T14:43:46;3.17;;;1.30;;
25497;SDS011;13406;53.380;7.226;2023-08-06T14:46:12;2.03;;;1.07;;
25497;SDS011;13406;53.380;7.226;2023-08-06T14:48:37;2.33;;;1.00;;
25497;SDS011;13406;53.380;7.226;2023-08-06T14:51:04;2.00;;;1.23;;
25497;SDS011;13406;53.380;7.226;2023-08-06T14:53:29;2.40;;;1.23;;